Time;durP1;ratioP1;P1;durP2;ratioP2;P2;SDS_P1;SDS_P2;PMS_P1;PMS_P2;Temp;Humidity;BMP_temperature;BMP_pressure;BME280_temperature;BME280_humidity;BME280_pressure;Samples;Min_cycle;Max_cycle;Signal;HPM_P1;HPM_P2
2023/05/11 00:02:00;;;;;;;20.55;18.38;;;13.40;99.90;;;;;;5047568;28;20397;-60
2023/05/11 00:04:26;;;;;;;21.23;19.02;;;13.40;99.90;;;;;;5048138;28;20120;-63
2023/05/11 00:06:53;;;;;;;20.63;17.20;;;13.40;99.90;;;;;;5047753;28;20556;-60
2023/05/11 00:09:19;;;;;;;21.02;18.17;;;13.40;99.90;;;;;;5046049;28;20049;-61
2023/05/11 00:11:45;;;;;;;21.38;19.17;;;13.40;99.90;;;;;;5047143;28;20037;-60
2023/05/11 00:14:10;;;;;;;22.52;17.33;;;13.40;99.90;;;;;;5034230;28;20478;-61
2023/05/11 00:16:36;;;;;;;21.30;18.13;;;13.40;99.90;;;;;;5047730;28;20045;-60
2023/05/11 00:19:01;;;;;;;22.27;18.83;;;13.30;99.90;;;;;;5051820;28;20040;-61
2023/05/11 00:21:27;;;;;;;20.17;18.17;;;13.30;99.90;;;;;;5052072;28;20044;-60
2023/05/11 00:23:53;;;;;;;20.83;18.73;;;13.20;99.90;;;;;;5040194;28;20397;-61
2023/05/11 00:26:18;;;;;;;23.13;19.23;;;13.30;99.90;;;;;;5046518;28;20063;-60
2023/05/11 00:28:44;;;;;;;22.35;18.00;;;13.30;99.90;;;;;;5038632;28;20040;-61
2023/05/11 00:31:09;;;;;;;21.17;18.67;;;13.30;99.90;;;;;;5051812;28;20053;-60
2023/05/11 00:33:35;;;;;;;20.88;18.77;;;13.20;99.90;;;;;;5050298;28;20156;-61
2023/05/11 00:36:02;;;;;;;22.17;18.10;;;13.20;99.90;;;;;;5052098;28;20048;-60
2023/05/11 00:38:28;;;;;;;22.83;17.90;;;13.20;99.90;;;;;;5051670;28;20440;-60
2023/05/11 00:40:54;;;;;;;20.17;18.08;;;13.20;99.90;;;;;;5051851;28;20045;-61
2023/05/11 00:43:19;;;;;;;20.52;18.33;;;13.20;99.90;;;;;;5051758;28;20049;-60
2023/05/11 00:45:47;;;;;;;22.77;17.65;;;13.20;99.90;;;;;;5051284;28;20045;-59
2023/05/11 00:48:14;;;;;;;20.45;17.88;;;13.20;99.90;;;;;;5051789;28;20055;-60
2023/05/11 00:50:39;;;;;;;23.17;19.17;;;13.20;99.90;;;;;;5051608;28;20461;-60
2023/05/11 00:53:05;;;;;;;21.42;17.55;;;13.20;99.90;;;;;;5055466;28;20036;-61
2023/05/11 00:55:31;;;;;;;19.92;17.75;;;13.20;99.90;;;;;;5050137;28;20048;-60
2023/05/11 00:57:56;;;;;;;26.13;20.35;;;13.20;99.90;;;;;;5053893;28;20037;-60
2023/05/11 01:00:22;;;;;;;20.98;17.80;;;13.20;99.90;;;;;;5050936;28;20037;-61
2023/05/11 01:02:48;;;;;;;26.17;19.48;;;13.20;99.90;;;;;;5051881;28;20528;-60
2023/05/11 01:05:14;;;;;;;21.02;18.80;;;13.20;99.90;;;;;;5056905;28;20533;-60
2023/05/11 01:07:45;;;;;;;;;;;13.20;99.90;;;;;;5051706;28;20037;-60
2023/05/11 01:10:22;;;;;;;20.35;17.98;;;13.20;99.90;;;;;;5051492;28;20019;-61
2023/05/11 01:13:06;;;;;;;23.50;18.35;;;13.20;99.90;;;;;;5051262;28;20049;-60
2023/05/11 01:15:41;;;;;;;21.63;17.77;;;13.10;99.90;;;;;;5029710;28;20044;-59
2023/05/11 01:18:26;;;;;;;21.25;19.00;;;13.10;99.90;;;;;;5029774;28;20033;-60
2023/05/11 01:20:59;;;;;;;21.67;17.88;;;13.10;99.90;;;;;;5031051;28;20136;-61
2023/05/11 01:23:28;;;;;;;19.98;17.25;;;13.10;99.90;;;;;;5034921;28;20096;-59
2023/05/11 01:26:07;;;;;;;21.65;19.25;;;13.10;99.90;;;;;;5030957;28;20405;-60
2023/05/11 01:28:57;;;;;;;22.45;18.02;;;13.10;99.90;;;;;;5030865;28;20040;-61
2023/05/11 01:31:25;;;;;;;21.65;18.65;;;13.10;99.90;;;;;;5030603;28;20034;-60
2023/05/11 01:33:57;;;;;;;23.73;19.48;;;13.10;99.90;;;;;;5035685;28;20086;-60
2023/05/11 01:36:31;;;;;;;24.05;19.80;;;13.10;99.90;;;;;;5050105;28;20047;-60
2023/05/11 01:39:02;;;;;;;25.05;20.05;;;13.10;99.90;;;;;;5049871;28;20032;-60
2023/05/11 01:41:31;;;;;;;28.55;20.30;;;13.10;99.90;;;;;;5048897;28;20037;-61
2023/05/11 01:43:59;;;;;;;26.13;20.20;;;13.10;99.90;;;;;;5049967;28;20041;-63
2023/05/11 01:46:28;;;;;;;26.48;21.42;;;13.20;99.90;;;;;;5047698;28;20476;-61
2023/05/11 01:48:55;;;;;;;29.92;22.58;;;13.10;99.90;;;;;;5049718;28;20112;-61
2023/05/11 01:51:23;;;;;;;28.58;21.23;;;13.10;99.90;;;;;;5050134;28;20055;-61
2023/05/11 01:53:52;;;;;;;26.52;20.95;;;13.10;99.90;;;;;;5050041;28;20037;-61
2023/05/11 01:56:20;;;;;;;27.73;22.25;;;13.10;99.90;;;;;;5050013;28;20033;-61
2023/05/11 01:58:48;;;;;;;28.85;22.92;;;13.10;99.90;;;;;;5049227;28;20075;-61
2023/05/11 02:01:16;;;;;;;27.23;23.05;;;13.10;99.90;;;;;;5050260;28;20136;-60
2023/05/11 02:03:43;;;;;;;28.80;22.52;;;13.10;99.90;;;;;;5050332;28;20393;-60
2023/05/11 02:06:12;;;;;;;28.83;22.40;;;13.10;99.90;;;;;;5049438;28;20116;-61
2023/05/11 02:08:39;;;;;;;30.02;23.02;;;13.10;99.90;;;;;;5048332;28;20502;-60
2023/05/11 02:11:07;;;;;;;29.80;23.35;;;13.10;99.90;;;;;;5049861;28;20128;-61
2023/05/11 02:13:35;;;;;;;32.88;23.98;;;13.10;99.90;;;;;;5048202;28;20444;-61
2023/05/11 02:16:02;;;;;;;32.75;24.80;;;13.10;99.90;;;;;;5048715;28;20451;-60
2023/05/11 02:18:30;;;;;;;36.25;25.35;;;13.10;99.90;;;;;;5049581;28;20037;-60
2023/05/11 02:20:58;;;;;;;31.70;23.80;;;13.10;99.90;;;;;;5049053;28;20067;-61
2023/05/11 02:23:25;;;;;;;37.22;25.10;;;13.10;99.90;;;;;;5050236;28;20045;-61
2023/05/11 02:25:52;;;;;;;33.95;24.73;;;13.10;99.90;;;;;;5049817;28;20045;-61
2023/05/11 02:28:18;;;;;;;35.17;24.30;;;13.10;99.90;;;;;;5049483;28;20045;-61
2023/05/11 02:30:46;;;;;;;34.45;23.58;;;13.10;99.90;;;;;;5050132;28;20144;-61
2023/05/11 02:33:31;;;;;;;36.65;26.13;;;13.10;99.90;;;;;;5047992;28;20041;-61
2023/05/11 02:35:59;;;;;;;40.50;26.35;;;13.10;99.90;;;;;;5049601;28;20451;-60
2023/05/11 02:38:31;;;;;;;39.35;26.75;;;13.10;99.90;;;;;;5049389;28;20482;-61
2023/05/11 02:41:01;;;;;;;34.17;25.65;;;13.00;99.90;;;;;;5048516;28;20616;-61
2023/05/11 02:43:32;;;;;;;40.95;26.90;;;13.00;99.90;;;;;;5048309;28;20087;-61
2023/05/11 02:46:13;;;;;;;37.38;26.08;;;13.00;99.90;;;;;;5049557;28;20041;-60
2023/05/11 02:48:44;;;;;;;37.55;25.60;;;13.00;99.90;;;;;;5047867;28;20045;-61
2023/05/11 02:51:12;;;;;;;40.92;27.55;;;13.00;99.90;;;;;;5048882;28;20037;-61
2023/05/11 02:53:41;;;;;;;40.17;26.10;;;12.90;99.90;;;;;;5049485;28;20525;-60
2023/05/11 02:56:08;;;;;;;41.42;27.05;;;12.90;99.90;;;;;;5048798;28;20041;-61
2023/05/11 02:58:33;;;;;;;43.97;27.23;;;12.90;99.90;;;;;;5047801;28;20432;-61
2023/05/11 03:00:59;;;;;;;37.17;27.02;;;12.90;99.90;;;;;;5047915;28;20052;-60
2023/05/11 03:03:26;;;;;;;39.80;26.40;;;12.90;99.90;;;;;;5046690;28;20033;-60
2023/05/11 03:05:52;;;;;;;39.70;26.48;;;12.90;99.90;;;;;;5044929;28;20053;-63
2023/05/11 03:08:18;;;;;;;41.30;27.27;;;12.80;99.90;;;;;;5049838;28;20470;-61
2023/05/11 03:10:44;;;;;;;;;;;12.80;99.90;;;;;;5037773;28;20042;-60
2023/05/11 03:13:10;;;;;;;43.38;28.23;;;12.80;99.90;;;;;;5029728;28;19921;-61
2023/05/11 03:15:37;;;;;;;43.67;30.38;;;12.80;99.90;;;;;;5029376;28;20107;-61
2023/05/11 03:18:05;;;;;;;40.15;27.20;;;12.80;99.90;;;;;;5027591;28;20045;-62
2023/05/11 03:20:32;;;;;;;44.42;28.42;;;12.80;99.90;;;;;;5031474;28;20120;-61
2023/05/11 03:23:00;;;;;;;46.35;28.50;;;12.80;99.90;;;;;;5044166;28;20049;-60
2023/05/11 03:25:27;;;;;;;44.75;29.23;;;12.80;99.90;;;;;;5052812;28;20079;-64
2023/05/11 03:27:54;;;;;;;44.80;29.25;;;12.80;99.90;;;;;;5052654;28;20041;-60
2023/05/11 03:30:22;;;;;;;46.22;30.20;;;12.80;99.90;;;;;;5052434;28;20119;-61
2023/05/11 03:32:48;;;;;;;43.83;29.73;;;12.70;99.90;;;;;;5051737;28;20125;-61
2023/05/11 03:35:13;;;;;;;51.47;30.08;;;12.70;99.90;;;;;;5052946;28;20145;-60
2023/05/11 03:37:41;;;;;;;45.75;29.77;;;12.70;99.90;;;;;;5052195;28;20404;-61
2023/05/11 03:40:08;;;;;;;42.63;28.98;;;12.70;99.90;;;;;;5052854;28;20041;-60
2023/05/11 03:42:36;;;;;;;47.45;29.77;;;12.70;99.90;;;;;;5052482;28;20044;-60
2023/05/11 03:45:04;;;;;;;44.92;29.83;;;12.70;99.90;;;;;;5052213;28;20061;-60
2023/05/11 03:47:32;;;;;;;39.80;26.98;;;12.70;99.90;;;;;;5052057;28;20055;-60
2023/05/11 03:49:58;;;;;;;50.10;28.90;;;12.70;99.90;;;;;;5052607;28;20433;-61
2023/05/11 03:52:24;;;;;;;44.45;29.13;;;12.60;99.90;;;;;;5051217;28;20124;-60
2023/05/11 03:54:50;;;;;;;43.35;27.77;;;12.70;99.90;;;;;;5052412;28;20029;-61
2023/05/11 03:57:15;;;;;;;41.88;28.27;;;12.60;99.90;;;;;;5051954;28;20086;-61
2023/05/11 03:59:41;;;;;;;42.92;29.73;;;12.70;99.90;;;;;;5052156;28;20041;-61
2023/05/11 04:02:07;;;;;;;42.22;28.92;;;12.70;99.90;;;;;;5052312;28;20409;-60
2023/05/11 04:04:33;;;;;;;;;;;12.60;99.90;;;;;;5052831;28;20048;-60
2023/05/11 04:06:59;;;;;;;39.95;26.10;;;12.60;99.90;;;;;;5053489;28;19963;-60
2023/05/11 04:09:25;;;;;;;43.83;29.50;;;12.60;99.90;;;;;;5053022;28;20121;-60
2023/05/11 04:11:50;;;;;;;41.92;29.13;;;12.70;99.90;;;;;;5052800;28;20118;-60
2023/05/11 04:14:16;;;;;;;35.50;25.05;;;12.60;99.90;;;;;;5052170;28;20563;-60
2023/05/11 04:16:42;;;;;;;41.58;27.38;;;12.60;99.90;;;;;;5051818;28;20029;-60
2023/05/11 04:19:08;;;;;;;40.50;26.15;;;12.60;99.90;;;;;;5051768;28;20112;-61
2023/05/11 04:21:34;;;;;;;39.03;25.25;;;12.60;99.90;;;;;;5051216;28;20139;-61
2023/05/11 04:24:00;;;;;;;;;;;12.60;99.90;;;;;;5051177;28;20052;-60
2023/05/11 04:26:26;;;;;;;35.13;24.00;;;12.60;99.90;;;;;;5051592;28;19917;-61
2023/05/11 04:28:51;;;;;;;35.17;24.55;;;12.60;99.90;;;;;;5050858;28;20401;-61
2023/05/11 04:31:17;;;;;;;33.85;23.23;;;12.60;99.90;;;;;;5051661;28;20044;-61
2023/05/11 04:33:43;;;;;;;37.58;25.33;;;12.60;99.90;;;;;;5051795;28;20059;-60
2023/05/11 04:36:08;;;;;;;35.33;24.25;;;12.60;99.90;;;;;;5051454;28;20517;-61
2023/05/11 04:38:34;;;;;;;34.10;24.30;;;12.60;99.90;;;;;;5051243;28;20056;-60
2023/05/11 04:41:09;;;;;;;33.65;24.80;;;12.60;99.90;;;;;;5050851;28;20124;-60
2023/05/11 04:43:34;;;;;;;35.65;25.05;;;12.60;99.90;;;;;;5029998;28;20045;-60
2023/05/11 04:46:00;;;;;;;34.28;23.83;;;12.60;99.90;;;;;;5041251;28;20090;-61
2023/05/11 04:48:26;;;;;;;32.42;23.98;;;12.60;99.90;;;;;;5049856;28;20076;-60
2023/05/11 04:50:55;;;;;;;47.97;27.27;;;12.60;99.90;;;;;;5051449;28;20525;-60
2023/05/11 04:53:21;;;;;;;41.70;25.63;;;12.60;99.90;;;;;;5051385;28;20048;-61
2023/05/11 04:55:46;;;;;;;37.67;23.95;;;12.60;99.90;;;;;;5050843;28;20421;-60
2023/05/11 04:58:12;;;;;;;37.25;25.23;;;12.60;99.90;;;;;;5051011;28;20045;-61
2023/05/11 05:00:38;;;;;;;37.28;26.45;;;12.60;99.90;;;;;;5051288;28;20064;-60
2023/05/11 05:03:03;;;;;;;40.17;26.23;;;12.60;99.90;;;;;;5051540;28;20040;-61
2023/05/11 05:05:29;;;;;;;36.80;24.92;;;12.60;99.90;;;;;;5037002;28;20033;-60
2023/05/11 05:07:55;;;;;;;40.67;24.75;;;12.70;99.90;;;;;;5036049;28;20045;-60
2023/05/11 05:10:20;;;;;;;36.55;23.40;;;12.70;99.90;;;;;;5048790;28;20068;-61
2023/05/11 05:12:47;;;;;;;34.20;23.50;;;12.70;99.90;;;;;;5034322;28;20049;-61
2023/05/11 05:15:12;;;;;;;38.38;24.52;;;12.70;99.90;;;;;;5046782;28;20075;-60
2023/05/11 05:17:38;;;;;;;39.00;23.25;;;12.70;99.90;;;;;;5050659;28;20068;-61
2023/05/11 05:20:05;;;;;;;37.50;24.35;;;12.70;99.90;;;;;;5049230;28;20033;-61
2023/05/11 05:22:30;;;;;;;30.83;22.95;;;12.70;99.90;;;;;;5049457;28;20075;-61
2023/05/11 05:24:56;;;;;;;31.10;22.85;;;12.80;99.90;;;;;;5049023;28;20033;-61
2023/05/11 05:27:22;;;;;;;33.03;23.05;;;12.80;99.90;;;;;;5031825;28;20556;-61
2023/05/11 05:29:47;;;;;;;36.13;22.85;;;12.80;99.90;;;;;;5049158;28;20124;-61
2023/05/11 05:32:13;;;;;;;32.13;22.50;;;12.80;99.90;;;;;;5049217;28;20033;-61
2023/05/11 05:34:39;;;;;;;28.92;20.65;;;12.80;99.90;;;;;;5046769;28;20029;-61
2023/05/11 05:37:05;;;;;;;29.60;20.58;;;12.80;99.90;;;;;;5037523;28;20044;-61
2023/05/11 05:39:30;;;;;;;32.10;21.52;;;12.80;99.90;;;;;;5049636;28;20041;-61
2023/05/11 05:41:56;;;;;;;29.55;21.92;;;12.80;99.90;;;;;;5049963;28;20473;-61
2023/05/11 05:44:21;;;;;;;27.98;20.33;;;12.90;99.90;;;;;;5050636;28;20068;-61
2023/05/11 05:46:47;;;;;;;29.02;21.25;;;12.90;99.90;;;;;;5049953;28;20481;-61
2023/05/11 05:49:13;;;;;;;29.48;21.40;;;12.90;99.90;;;;;;5049062;28;20025;-61
2023/05/11 05:51:39;;;;;;;28.05;20.50;;;12.90;99.90;;;;;;5049864;28;20033;-61
2023/05/11 05:54:04;;;;;;;27.65;21.45;;;12.90;99.90;;;;;;5048169;28;20068;-61
2023/05/11 05:56:31;;;;;;;29.40;20.52;;;13.00;99.90;;;;;;5049830;28;20049;-61
2023/05/11 05:58:56;;;;;;;;;;;13.00;99.90;;;;;;5048770;28;20072;-61
2023/05/11 06:01:22;;;;;;;28.92;20.75;;;13.00;99.90;;;;;;5049944;28;19916;-62
2023/05/11 06:03:50;;;;;;;31.98;22.23;;;13.10;99.90;;;;;;5048970;28;20061;-61
2023/05/11 06:06:16;;;;;;;32.45;22.23;;;13.10;99.90;;;;;;5049941;28;20414;-61
2023/05/11 06:08:42;;;;;;;33.63;22.67;;;13.10;99.90;;;;;;5048965;28;20048;-61
2023/05/11 06:11:08;;;;;;;30.45;22.52;;;13.20;99.90;;;;;;5050036;28;20044;-61
2023/05/11 06:13:33;;;;;;;30.40;22.52;;;13.10;99.90;;;;;;5049590;28;20033;-61
2023/05/11 06:15:59;;;;;;;30.58;22.25;;;13.10;99.90;;;;;;5049603;28;20041;-61
2023/05/11 06:18:25;;;;;;;29.38;21.67;;;13.10;99.90;;;;;;5049285;28;20045;-61
2023/05/11 06:20:50;;;;;;;30.95;21.98;;;13.20;99.90;;;;;;5049818;28;20045;-61
2023/05/11 06:23:16;;;;;;;32.35;21.75;;;13.20;99.90;;;;;;5044481;28;20648;-61
2023/05/11 06:25:41;;;;;;;37.60;24.40;;;13.20;99.90;;;;;;5050202;28;20044;-61
2023/05/11 06:28:07;;;;;;;31.35;22.40;;;13.20;99.90;;;;;;5049531;28;20501;-61
2023/05/11 06:30:33;;;;;;;32.65;23.23;;;13.20;99.90;;;;;;5049870;28;20064;-61
2023/05/11 06:32:58;;;;;;;29.70;22.40;;;13.20;99.90;;;;;;5053346;28;20037;-60
2023/05/11 06:35:24;;;;;;;32.13;23.00;;;13.20;99.90;;;;;;5048837;28;20029;-61
2023/05/11 06:37:50;;;;;;;33.92;23.30;;;13.20;99.90;;;;;;5048947;28;20386;-61
2023/05/11 06:40:16;;;;;;;35.28;25.00;;;13.20;99.90;;;;;;5048767;28;20056;-61
2023/05/11 06:42:42;;;;;;;34.08;24.50;;;13.20;99.90;;;;;;5045444;28;20505;-61
2023/05/11 06:45:08;;;;;;;34.70;23.48;;;13.20;99.90;;;;;;5048759;28;20033;-61
2023/05/11 06:47:33;;;;;;;38.10;25.98;;;13.20;99.90;;;;;;5050472;28;20308;-61
2023/05/11 06:49:59;;;;;;;36.20;23.98;;;13.20;99.90;;;;;;5050616;28;20052;-61
2023/05/11 06:52:25;;;;;;;33.55;23.73;;;13.20;99.90;;;;;;5050915;28;20048;-61
2023/05/11 06:54:50;;;;;;;34.88;23.92;;;13.20;99.90;;;;;;5050684;28;20393;-61
2023/05/11 06:57:16;;;;;;;38.45;25.58;;;13.20;99.90;;;;;;5053001;28;20071;-61
2023/05/11 06:59:42;;;;;;;28.02;20.33;;;13.20;99.90;;;;;;5053291;28;20126;-61
2023/05/11 07:02:08;;;;;;;;;;;13.10;99.90;;;;;;5052588;28;20361;-61
2023/05/11 07:04:34;;;;;;;26.77;18.85;;;13.10;99.90;;;;;;5053094;28;19917;-59
2023/05/11 07:06:59;;;;;;;34.42;19.15;;;13.10;99.90;;;;;;5052777;28;20529;-59
2023/05/11 07:09:25;;;;;;;30.35;19.83;;;13.00;99.90;;;;;;5053033;28;20045;-59
2023/05/11 07:11:51;;;;;;;27.00;17.55;;;13.00;99.90;;;;;;5052722;28;20457;-60
2023/05/11 07:14:17;;;;;;;23.90;16.20;;;12.90;99.90;;;;;;5052098;28;20317;-59
2023/05/11 07:16:43;;;;;;;19.65;12.60;;;12.90;99.90;;;;;;5049018;28;20037;-59
2023/05/11 07:19:09;;;;;;;16.33;11.23;;;13.00;99.90;;;;;;5035183;28;20382;-59
2023/05/11 07:21:35;;;;;;;22.30;13.45;;;12.90;99.90;;;;;;5052715;28;20521;-58
2023/05/11 07:24:02;;;;;;;20.65;14.82;;;13.00;99.90;;;;;;5053168;28;20049;-61
2023/05/11 07:26:27;;;;;;;23.05;16.48;;;13.00;99.90;;;;;;5052617;28;20054;-61
2023/05/11 07:28:53;;;;;;;27.05;16.17;;;13.00;99.90;;;;;;5041857;28;20045;-61
2023/05/11 07:31:19;;;;;;;25.30;15.77;;;13.00;99.90;;;;;;5048593;28;20029;-61
2023/05/11 07:33:44;;;;;;;20.92;15.38;;;13.00;99.90;;;;;;5042989;28;20029;-61
2023/05/11 07:36:10;;;;;;;13.82;10.93;;;13.00;99.90;;;;;;5050847;28;20037;-61
2023/05/11 07:38:36;;;;;;;17.63;11.48;;;13.00;99.90;;;;;;5053521;28;20051;-61
2023/05/11 07:41:02;;;;;;;13.25;10.43;;;13.00;99.90;;;;;;5053372;28;20094;-61
2023/05/11 07:43:28;;;;;;;;;;;13.00;99.90;;;;;;5060073;28;20115;-61
2023/05/11 07:45:54;;;;;;;12.48;9.52;;;13.10;99.90;;;;;;5057250;28;20321;-60
2023/05/11 07:48:20;;;;;;;14.25;9.38;;;13.10;99.90;;;;;;5053841;28;20078;-60
2023/05/11 07:50:45;;;;;;;;;;;13.10;99.90;;;;;;5060795;28;20048;-60
2023/05/11 07:53:11;;;;;;;11.13;7.70;;;13.10;99.90;;;;;;5057600;28;19928;-61
2023/05/11 07:55:37;;;;;;;9.05;7.63;;;13.20;99.90;;;;;;5061285;28;20037;-60
2023/05/11 07:58:02;;;;;;;11.82;7.35;;;13.20;99.90;;;;;;5059525;28;20053;-61
2023/05/11 08:00:28;;;;;;;10.95;7.90;;;13.20;99.90;;;;;;5057486;28;20052;-61
2023/05/11 08:02:53;;;;;;;14.23;7.93;;;13.20;99.90;;;;;;5056398;28;20048;-61
2023/05/11 08:05:19;;;;;;;10.15;7.55;;;13.20;99.90;;;;;;5057766;28;20044;-61
2023/05/11 08:07:45;;;;;;;8.35;6.13;;;13.30;99.90;;;;;;5055539;28;20509;-62
2023/05/11 08:10:11;;;;;;;12.52;7.10;;;13.30;99.90;;;;;;5059501;28;20508;-63
2023/05/11 08:12:37;;;;;;;9.73;5.40;;;13.40;99.90;;;;;;5061057;28;20044;-62
2023/05/11 08:15:04;;;;;;;8.15;5.43;;;13.40;99.90;;;;;;5058633;28;20093;-62
2023/05/11 08:17:30;;;;;;;9.35;5.18;;;13.50;99.90;;;;;;5058879;28;20037;-63
2023/05/11 08:19:56;;;;;;;5.95;4.32;;;13.50;99.90;;;;;;5063220;28;20048;-62
2023/05/11 08:22:22;;;;;;;6.63;4.57;;;13.60;99.90;;;;;;5055945;28;20397;-62
2023/05/11 08:24:49;;;;;;;4.15;3.42;;;13.60;99.90;;;;;;5056148;28;20039;-62
2023/05/11 08:27:15;;;;;;;4.50;3.65;;;13.70;99.90;;;;;;5052997;28;20096;-63
2023/05/11 08:29:41;;;;;;;5.65;4.22;;;13.70;99.90;;;;;;5055783;28;20064;-63
2023/05/11 08:32:06;;;;;;;5.30;3.53;;;13.60;99.90;;;;;;5055503;28;20036;-63
2023/05/11 08:34:32;;;;;;;6.10;4.00;;;13.60;99.90;;;;;;5047177;28;20893;-63
2023/05/11 08:37:00;;;;;;;3.05;2.65;;;13.70;99.90;;;;;;5050056;28;20045;-62
2023/05/11 08:39:29;;;;;;;4.45;2.78;;;13.80;99.90;;;;;;5053420;28;20455;-63
2023/05/11 08:41:56;;;;;;;4.10;3.20;;;13.80;99.90;;;;;;5058431;28;20119;-63
2023/05/11 08:44:24;;;;;;;3.00;2.60;;;13.80;99.90;;;;;;5048238;28;20516;-63
2023/05/11 08:46:52;;;;;;;2.97;2.40;;;13.90;99.90;;;;;;5046629;28;20048;-63
2023/05/11 08:49:18;;;;;;;2.58;1.50;;;14.00;99.90;;;;;;5049018;28;20548;-62
2023/05/11 08:51:45;;;;;;;1.90;1.73;;;14.10;99.90;;;;;;5054294;28;20033;-61
2023/05/11 08:54:11;;;;;;;2.10;1.38;;;14.10;99.90;;;;;;5035693;28;20095;-62
2023/05/11 08:56:40;;;;;;;2.20;1.42;;;14.20;99.90;;;;;;5052531;28;20041;-63
2023/05/11 08:59:06;;;;;;;2.33;1.50;;;14.20;99.90;;;;;;5056532;28;20045;-63
2023/05/11 09:01:33;;;;;;;;;;;14.30;99.90;;;;;;5053269;28;20056;-62
2023/05/11 09:03:59;;;;;;;1.40;0.80;;;14.30;99.90;;;;;;5052990;28;19922;-64
2023/05/11 09:06:26;;;;;;;0.73;0.52;;;14.20;99.90;;;;;;5046715;28;20142;-64
2023/05/11 09:08:52;;;;;;;1.45;0.43;;;14.30;99.90;;;;;;5052463;28;20140;-64
2023/05/11 09:11:18;;;;;;;0.88;0.70;;;14.30;99.90;;;;;;5047665;28;20526;-64
2023/05/11 09:13:44;;;;;;;1.63;0.88;;;14.30;99.90;;;;;;5049823;28;20058;-64
2023/05/11 09:16:10;;;;;;;2.05;1.20;;;14.30;99.90;;;;;;5052175;28;20033;-63
2023/05/11 09:18:46;;;;;;;1.83;1.35;;;14.20;99.90;;;;;;5054418;28;20083;-63
2023/05/11 09:21:12;;;;;;;3.85;2.30;;;14.30;99.90;;;;;;5053048;28;20201;-62
2023/05/11 09:23:39;;;;;;;3.85;2.80;;;14.30;99.90;;;;;;5056850;28;20468;-61
2023/05/11 09:26:12;;;;;;;4.63;3.70;;;14.30;99.90;;;;;;5056783;28;20044;-63
2023/05/11 09:28:53;;;;;;;5.45;3.67;;;14.30;99.90;;;;;;5053345;28;20049;-59
2023/05/11 09:31:41;;;;;;;5.53;3.88;;;14.40;99.90;;;;;;5048087;28;20042;-59
2023/05/11 09:34:18;;;;;;;5.07;3.80;;;14.40;99.90;;;;;;5053385;28;20512;-61
2023/05/11 09:36:47;;;;;;;6.35;4.65;;;14.50;99.90;;;;;;5050216;28;20040;-60
2023/05/11 09:39:13;;;;;;;6.50;4.90;;;14.60;99.90;;;;;;5054719;28;20049;-60
2023/05/11 09:41:39;;;;;;;7.30;5.38;;;14.70;99.90;;;;;;5052253;28;20167;-60
2023/05/11 09:44:10;;;;;;;7.57;5.47;;;14.80;99.90;;;;;;5049656;28;20087;-60
2023/05/11 09:46:43;;;;;;;7.97;6.20;;;14.90;99.90;;;;;;5044847;28;20029;-61
2023/05/11 09:49:10;;;;;;;9.48;5.72;;;15.10;99.90;;;;;;5052807;28;20037;-61
2023/05/11 09:51:39;;;;;;;9.10;7.30;;;15.10;99.90;;;;;;5050526;28;20052;-60
2023/05/11 09:54:16;;;;;;;9.00;5.88;;;15.20;99.90;;;;;;5037180;28;20477;-61
2023/05/11 09:56:55;;;;;;;7.93;6.28;;;15.20;99.90;;;;;;5052810;28;20040;-60
2023/05/11 09:59:47;;;;;;;7.88;5.65;;;15.20;99.90;;;;;;5049696;28;20029;-60
2023/05/11 10:02:20;;;;;;;7.30;5.50;;;15.20;99.90;;;;;;5052106;28;20052;-60
2023/05/11 10:04:47;;;;;;;7.68;5.45;;;15.20;99.90;;;;;;5053414;28;20171;-60
2023/05/11 10:07:30;;;;;;;8.48;5.38;;;15.20;99.90;;;;;;5050431;28;20049;-60
2023/05/11 10:10:01;;;;;;;7.18;4.90;;;15.10;99.90;;;;;;5052486;28;20041;-60
2023/05/11 10:12:29;;;;;;;4.47;3.92;;;15.10;99.90;;;;;;5048070;28;20132;-61
2023/05/11 10:15:05;;;;;;;4.93;3.60;;;15.10;99.90;;;;;;5053812;28;20497;-60
2023/05/11 10:17:31;;;;;;;3.25;2.95;;;15.10;99.90;;;;;;5049965;28;20047;-60
2023/05/11 10:19:58;;;;;;;3.60;3.10;;;15.10;99.90;;;;;;5053650;28;20090;-61
2023/05/11 10:22:27;;;;;;;5.95;2.65;;;15.10;99.90;;;;;;5049199;28;20500;-60
2023/05/11 10:24:55;;;;;;;2.55;2.35;;;15.20;99.90;;;;;;5053970;28;20045;-60
2023/05/11 10:27:21;;;;;;;3.92;2.88;;;15.40;99.90;;;;;;5050821;28;20098;-61
2023/05/11 10:29:47;;;;;;;;;;;15.50;99.90;;;;;;5057655;28;20056;-62
2023/05/11 10:32:15;;;;;;;7.22;3.70;;;15.70;99.90;;;;;;5056735;28;19920;-62
2023/05/11 10:34:42;;;;;;;4.72;4.10;;;15.70;99.90;;;;;;5058543;28;20047;-63
2023/05/11 10:37:08;;;;;;;6.47;5.55;;;15.80;99.90;;;;;;5055054;28;20040;-63
2023/05/11 10:39:38;;;;;;;7.38;5.82;;;15.90;99.90;;;;;;5055246;28;20032;-62
2023/05/11 10:42:25;;;;;;;7.38;5.43;;;16.00;99.90;;;;;;5054473;28;20044;-62
2023/05/11 10:45:29;;;;;;;7.15;6.03;;;16.00;99.90;;;;;;5058948;28;20424;-61
2023/05/11 10:48:41;;;;;;;11.05;7.65;;;16.10;99.90;;;;;;4955592;28;20046;-63
2023/05/11 10:51:20;;;;;;;11.25;10.05;;;16.10;99.90;;;;;;4954642;28;20478;-61
2023/05/11 10:53:45;;;;;;;12.48;9.52;;;16.20;99.90;;;;;;5035907;28;20386;-62
2023/05/11 10:56:55;;;;;;;11.20;8.82;;;16.30;99.90;;;;;;5057100;28;20041;-62
2023/05/11 10:59:42;;;;;;;10.13;9.07;;;16.50;99.90;;;;;;5049890;28;20079;-61
2023/05/11 11:02:08;;;;;;;10.52;8.20;;;16.60;99.90;;;;;;5057096;28;20040;-62
2023/05/11 11:04:45;;;;;;;7.07;6.22;;;16.60;99.90;;;;;;5052675;28;20090;-62
2023/05/11 11:07:16;;;;;;;7.35;5.80;;;16.70;99.90;;;;;;5055814;28;20040;-62
2023/05/11 11:10:06;;;;;;;7.55;6.45;;;16.60;99.90;;;;;;5056688;28;20044;-61
2023/05/11 11:12:35;;;;;;;11.82;8.60;;;16.60;99.90;;;;;;5043741;28;20056;-61
2023/05/11 11:15:05;;;;;;;10.70;9.43;;;16.60;99.90;;;;;;5054149;28;20037;-61
2023/05/11 11:17:33;;;;;;;12.32;10.85;;;16.70;99.90;;;;;;5055853;28;20037;-61
2023/05/11 11:20:07;;;;;;;13.10;10.65;;;16.60;99.90;;;;;;5056449;28;20049;-60
2023/05/11 11:22:40;;;;;;;12.50;10.57;;;16.60;99.90;;;;;;5054651;28;20044;-61
2023/05/11 11:25:06;;;;;;;13.00;11.57;;;16.70;99.90;;;;;;5053955;28;20133;-61
2023/05/11 11:27:44;;;;;;;14.40;12.60;;;16.60;99.90;;;;;;5055216;28;20048;-61
2023/05/11 11:30:14;;;;;;;15.75;12.38;;;16.60;99.90;;;;;;5052052;28;20048;-61
2023/05/11 11:32:40;;;;;;;15.38;12.15;;;16.50;99.90;;;;;;5054995;28;20051;-62
2023/05/11 11:35:40;;;;;;;16.42;12.50;;;16.50;99.90;;;;;;5055202;28;20033;-62
2023/05/11 11:38:07;;;;;;;16.65;11.88;;;16.50;99.90;;;;;;5054656;28;20096;-62
2023/05/11 11:40:36;;;;;;;;;;;16.50;99.90;;;;;;5052025;28;20036;-61
2023/05/11 11:43:12;;;;;;;16.10;12.88;;;16.50;99.90;;;;;;5050453;28;19939;-61
2023/05/11 11:45:39;;;;;;;18.45;14.32;;;16.50;99.90;;;;;;5050359;28;20044;-61
2023/05/11 11:48:13;;;;;;;15.65;12.88;;;16.50;99.90;;;;;;5054547;28;20037;-63
2023/05/11 11:50:43;;;;;;;16.17;12.65;;;16.50;99.90;;;;;;5054595;28;20444;-61
2023/05/11 11:53:11;;;;;;;13.48;12.02;;;16.60;99.90;;;;;;5052082;28;20081;-61
2023/05/11 11:55:50;;;;;;;16.38;12.93;;;16.60;99.90;;;;;;5056753;28;20036;-62
2023/05/11 11:58:41;;;;;;;17.80;12.85;;;16.50;99.90;;;;;;5058444;28;20037;-61
2023/05/11 12:01:10;;;;;;;16.88;13.70;;;16.50;99.90;;;;;;5061672;28;20049;-61
2023/05/11 12:03:36;;;;;;;14.07;11.60;;;16.50;99.90;;;;;;5062265;28;20036;-61
2023/05/11 12:06:05;;;;;;;13.82;12.32;;;16.50;99.90;;;;;;5063097;28;20056;-61
2023/05/11 12:08:31;;;;;;;15.30;12.75;;;16.50;99.90;;;;;;5053085;28;20053;-60
2023/05/11 12:11:00;;;;;;;19.58;14.32;;;16.50;99.90;;;;;;5056971;28;20119;-60
2023/05/11 12:13:27;;;;;;;16.00;12.27;;;16.50;99.90;;;;;;5055268;28;20078;-60
2023/05/11 12:16:16;;;;;;;19.08;13.95;;;16.50;99.90;;;;;;5054443;28;20437;-61
2023/05/11 12:18:50;;;;;;;16.30;13.68;;;16.50;99.90;;;;;;5054502;28;20345;-63
2023/05/11 12:21:26;;;;;;;17.55;13.45;;;16.50;99.90;;;;;;5045945;28;20044;-61
2023/05/11 12:24:04;;;;;;;14.63;13.13;;;16.50;99.90;;;;;;5053152;28;20033;-66
2023/05/11 12:26:31;;;;;;;15.93;12.80;;;16.50;99.90;;;;;;5046570;28;20033;-61
2023/05/11 12:29:11;;;;;;;14.38;12.00;;;16.50;99.90;;;;;;5049149;28;20248;-61
2023/05/11 12:31:42;;;;;;;16.45;13.88;;;16.50;99.90;;;;;;5048388;28;20041;-61
2023/05/11 12:34:24;;;;;;;15.73;11.63;;;16.50;99.90;;;;;;5049786;28;20425;-61
2023/05/11 12:36:51;;;;;;;16.67;13.57;;;16.50;99.90;;;;;;5046343;28;20045;-62
2023/05/11 12:39:22;;;;;;;16.48;12.90;;;16.50;99.90;;;;;;5045564;28;20045;-62
2023/05/11 12:41:48;;;;;;;14.77;13.07;;;16.60;99.90;;;;;;5047606;28;20036;-61
2023/05/11 12:44:16;;;;;;;14.90;13.27;;;16.60;99.90;;;;;;5052702;28;20028;-61